CFG91A LICJ-LGKF
Flight info
| Callsign | CFG91A |
|---|---|
| Flight time | 1h 3m |
| Altitude | 37000 |
| Route | ROSAS DCT REGSO DCT EKPAR/N0448F380 DCT RUTOM/N0441F370 DCT LASKO |
| Aircraft | A321/M-SDE3FGHIRWY/LB1 |
Departure
| Time | 2026-04-30 12:21 |
|---|---|
| Airport | Falcone–Borsellino Airport (LICJ) |
Arrival
| Time | 2026-04-30 13:24 |
|---|---|
| Airport | Kefallinia Airport (LGKF) |
| Time | Latitude | Longitude | Altitude | Speed | Heading |
|---|---|---|---|---|---|
| 2026-04-30 12:08 | 38.18429 | 13.10379 | 65 ft | 0 kts | 67° |
| 2026-04-30 12:09 | 38.18423 | 13.10358 | 57 ft | 4 kts | 70° |
| 2026-04-30 12:09 | 38.18415 | 13.10325 | 56 ft | 4 kts | 79° |
| 2026-04-30 12:09 | 38.18412 | 13.10292 | 58 ft | 4 kts | 101° |
| 2026-04-30 12:10 | 38.18422 | 13.10268 | 60 ft | 2 kts | 156° |
| 2026-04-30 12:10 | 38.18423 | 13.10267 | 60 ft | 0 kts | 158° |
| 2026-04-30 12:12 | 38.18407 | 13.10275 | 57 ft | 10 kts | 157° |
| 2026-04-30 12:12 | 38.18330 | 13.10317 | 59 ft | 12 kts | 155° |
| 2026-04-30 12:12 | 38.18260 | 13.10362 | 59 ft | 11 kts | 161° |
| 2026-04-30 12:12 | 38.18203 | 13.10331 | 58 ft | 9 kts | 240° |
| 2026-04-30 12:13 | 38.18180 | 13.10266 | 63 ft | 8 kts | 245° |
| 2026-04-30 12:13 | 38.18160 | 13.10209 | 59 ft | 7 kts | 245° |
| 2026-04-30 12:13 | 38.18143 | 13.10159 | 63 ft | 6 kts | 248° |
| 2026-04-30 12:13 | 38.18128 | 13.10113 | 62 ft | 5 kts | 247° |
| 2026-04-30 12:14 | 38.18114 | 13.10072 | 59 ft | 5 kts | 247° |
| 2026-04-30 12:14 | 38.18091 | 13.10003 | 61 ft | 15 kts | 247° |
| 2026-04-30 12:14 | 38.18035 | 13.09836 | 63 ft | 23 kts | 246° |
| 2026-04-30 12:14 | 38.17974 | 13.09652 | 59 ft | 22 kts | 247° |
| 2026-04-30 12:15 | 38.17915 | 13.09478 | 61 ft | 21 kts | 247° |
| 2026-04-30 12:15 | 38.17861 | 13.09318 | 70 ft | 17 kts | 246° |
| 2026-04-30 12:15 | 38.17817 | 13.09188 | 66 ft | 16 kts | 247° |
| 2026-04-30 12:15 | 38.17769 | 13.09041 | 59 ft | 19 kts | 248° |
| 2026-04-30 12:16 | 38.17693 | 13.08912 | 63 ft | 18 kts | 218° |
| 2026-04-30 12:16 | 38.17647 | 13.08867 | 61 ft | 0 kts | 217° |
| 2026-04-30 12:18 | 38.17625 | 13.08846 | 64 ft | 11 kts | 217° |
| 2026-04-30 12:19 | 38.17563 | 13.08787 | 63 ft | 10 kts | 217° |
| 2026-04-30 12:19 | 38.17509 | 13.08762 | 67 ft | 6 kts | 166° |
| 2026-04-30 12:19 | 38.17489 | 13.08794 | 70 ft | 4 kts | 106° |
| 2026-04-30 12:19 | 38.17490 | 13.08823 | 69 ft | 3 kts | 78° |
| 2026-04-30 12:20 | 38.17498 | 13.08847 | 70 ft | 3 kts | 66° |
| 2026-04-30 12:20 | 38.17505 | 13.08868 | 62 ft | 2 kts | 66° |
| 2026-04-30 12:20 | 38.17511 | 13.08885 | 66 ft | 4 kts | 66° |
| 2026-04-30 12:20 | 38.17597 | 13.09138 | 71 ft | 78 kts | 66° |
| 2026-04-30 12:21 | 38.17930 | 13.10124 | 69 ft | 160 kts | 67° |
| 2026-04-30 12:21 | 38.18322 | 13.11660 | 460 ft | 198 kts | 73° |
| 2026-04-30 12:21 | 38.18803 | 13.13294 | 1500 ft | 200 kts | 65° |
| 2026-04-30 12:21 | 38.19388 | 13.14937 | 2056 ft | 213 kts | 63° |
| 2026-04-30 12:22 | 38.20049 | 13.16742 | 2387 ft | 237 kts | 63° |
| 2026-04-30 12:22 | 38.20813 | 13.18664 | 2850 ft | 254 kts | 54° |
| 2026-04-30 12:22 | 38.22112 | 13.20185 | 3614 ft | 258 kts | 28° |
| 2026-04-30 12:22 | 38.23766 | 13.21116 | 4393 ft | 263 kts | 21° |
| 2026-04-30 12:23 | 38.25486 | 13.22017 | 5129 ft | 271 kts | 21° |
| 2026-04-30 12:23 | 38.27245 | 13.22942 | 5932 ft | 274 kts | 19° |
| 2026-04-30 12:23 | 38.29013 | 13.23877 | 6770 ft | 276 kts | 20° |
| 2026-04-30 12:23 | 38.30796 | 13.24824 | 7552 ft | 279 kts | 20° |
| 2026-04-30 12:24 | 38.32595 | 13.25785 | 8346 ft | 281 kts | 20° |
| 2026-04-30 12:24 | 38.34412 | 13.26753 | 9133 ft | 284 kts | 19° |
| 2026-04-30 12:24 | 38.36243 | 13.27728 | 9919 ft | 287 kts | 19° |
| 2026-04-30 12:24 | 38.38121 | 13.28725 | 10380 ft | 302 kts | 19° |
| 2026-04-30 12:25 | 38.40132 | 13.29790 | 10580 ft | 322 kts | 19° |
| 2026-04-30 12:25 | 38.42229 | 13.30906 | 11136 ft | 329 kts | 19° |
| 2026-04-30 12:25 | 38.44354 | 13.32041 | 11782 ft | 333 kts | 19° |
| 2026-04-30 12:25 | 38.46505 | 13.33190 | 12452 ft | 337 kts | 19° |
| 2026-04-30 12:26 | 38.48683 | 13.34355 | 13138 ft | 341 kts | 19° |
| 2026-04-30 12:26 | 38.50856 | 13.35522 | 13784 ft | 345 kts | 19° |
| 2026-04-30 12:26 | 38.53083 | 13.36718 | 14380 ft | 349 kts | 19° |
| 2026-04-30 12:26 | 38.55334 | 13.37933 | 14982 ft | 352 kts | 19° |
| 2026-04-30 12:27 | 38.57604 | 13.39158 | 15588 ft | 355 kts | 19° |
| 2026-04-30 12:27 | 38.59893 | 13.40387 | 16196 ft | 358 kts | 19° |
| 2026-04-30 12:27 | 38.62203 | 13.41628 | 16792 ft | 361 kts | 19° |
| 2026-04-30 12:27 | 38.64528 | 13.42877 | 17380 ft | 364 kts | 19° |
| 2026-04-30 12:28 | 38.66878 | 13.44141 | 17960 ft | 368 kts | 19° |
| 2026-04-30 12:28 | 38.69248 | 13.45415 | 18508 ft | 371 kts | 19° |
| 2026-04-30 12:28 | 38.71634 | 13.46698 | 18994 ft | 373 kts | 19° |
| 2026-04-30 12:28 | 38.74008 | 13.47975 | 19475 ft | 376 kts | 19° |
| 2026-04-30 12:29 | 38.76430 | 13.49285 | 19954 ft | 378 kts | 19° |
| 2026-04-30 12:29 | 38.78855 | 13.50627 | 20465 ft | 382 kts | 22° |
| 2026-04-30 12:29 | 38.81079 | 13.52552 | 20929 ft | 392 kts | 38° |
| 2026-04-30 12:29 | 38.82845 | 13.55255 | 21369 ft | 402 kts | 55° |
| 2026-04-30 12:30 | 38.83982 | 13.58563 | 21796 ft | 411 kts | 72° |
| 2026-04-30 12:30 | 38.84337 | 13.62223 | 22202 ft | 419 kts | 90° |
| 2026-04-30 12:30 | 38.84073 | 13.65957 | 22599 ft | 423 kts | 94° |
| 2026-04-30 12:30 | 38.83756 | 13.69718 | 23002 ft | 425 kts | 94° |
| 2026-04-30 12:31 | 38.83436 | 13.73492 | 23396 ft | 428 kts | 94° |
| 2026-04-30 12:31 | 38.83114 | 13.77309 | 23766 ft | 430 kts | 94° |
| 2026-04-30 12:31 | 38.82791 | 13.81143 | 24084 ft | 433 kts | 94° |
| 2026-04-30 12:31 | 38.82467 | 13.84988 | 24412 ft | 435 kts | 94° |
| 2026-04-30 12:32 | 38.82136 | 13.88855 | 24785 ft | 437 kts | 94° |
| 2026-04-30 12:32 | 38.81802 | 13.92736 | 25142 ft | 439 kts | 94° |
| 2026-04-30 12:32 | 38.81466 | 13.96641 | 25469 ft | 441 kts | 94° |
| 2026-04-30 12:32 | 38.81128 | 14.00558 | 25820 ft | 443 kts | 94° |
| 2026-04-30 12:33 | 38.80787 | 14.04495 | 26165 ft | 446 kts | 94° |
| 2026-04-30 12:33 | 38.80442 | 14.08452 | 26492 ft | 448 kts | 94° |
| 2026-04-30 12:33 | 38.80058 | 14.12863 | 26869 ft | 451 kts | 94° |
| 2026-04-30 12:33 | 38.79710 | 14.16867 | 27196 ft | 453 kts | 94° |
| 2026-04-30 12:34 | 38.79358 | 14.20897 | 27531 ft | 456 kts | 94° |
| 2026-04-30 12:34 | 38.78999 | 14.24947 | 27892 ft | 457 kts | 94° |
| 2026-04-30 12:34 | 38.78636 | 14.29005 | 28235 ft | 459 kts | 94° |
| 2026-04-30 12:34 | 38.78271 | 14.33086 | 28561 ft | 461 kts | 94° |
| 2026-04-30 12:35 | 38.77909 | 14.37180 | 28871 ft | 464 kts | 94° |
| 2026-04-30 12:35 | 38.77543 | 14.41297 | 29049 ft | 464 kts | 94° |
| 2026-04-30 12:35 | 38.77178 | 14.45333 | 29076 ft | 446 kts | 94° |
| 2026-04-30 12:35 | 38.76824 | 14.49239 | 29075 ft | 438 kts | 94° |
| 2026-04-30 12:36 | 38.76132 | 14.56904 | 29070 ft | 434 kts | 94° |
| 2026-04-30 12:36 | 38.75426 | 14.64589 | 29070 ft | 434 kts | 94° |
| 2026-04-30 12:37 | 38.74711 | 14.72269 | 29071 ft | 434 kts | 94° |
| 2026-04-30 12:37 | 38.73999 | 14.79953 | 29069 ft | 434 kts | 94° |
| 2026-04-30 12:38 | 38.73283 | 14.87634 | 29065 ft | 434 kts | 94° |
| 2026-04-30 12:38 | 38.72560 | 14.95306 | 29077 ft | 433 kts | 94° |
| 2026-04-30 12:39 | 38.71837 | 15.02959 | 29086 ft | 432 kts | 94° |
| 2026-04-30 12:39 | 38.71113 | 15.10586 | 29083 ft | 431 kts | 95° |
| 2026-04-30 12:40 | 38.70377 | 15.18202 | 29079 ft | 430 kts | 95° |
| 2026-04-30 12:40 | 38.69637 | 15.25805 | 29069 ft | 430 kts | 95° |
| 2026-04-30 12:41 | 38.68888 | 15.33395 | 29075 ft | 430 kts | 95° |
| 2026-04-30 12:41 | 38.68012 | 15.40907 | 29067 ft | 430 kts | 97° |
| 2026-04-30 12:42 | 38.67006 | 15.48445 | 29063 ft | 429 kts | 97° |
| 2026-04-30 12:42 | 38.66003 | 15.55979 | 29056 ft | 429 kts | 97° |
| 2026-04-30 12:43 | 38.65021 | 15.63507 | 29055 ft | 429 kts | 97° |
| 2026-04-30 12:43 | 38.64215 | 15.69757 | 29066 ft | 428 kts | 97° |
| 2026-04-30 12:44 | 38.63247 | 15.77261 | 29058 ft | 427 kts | 97° |
| 2026-04-30 12:44 | 38.62268 | 15.84759 | 29055 ft | 427 kts | 97° |
| 2026-04-30 12:45 | 38.61277 | 15.92239 | 29052 ft | 427 kts | 97° |
| 2026-04-30 12:45 | 38.60287 | 15.99715 | 29058 ft | 426 kts | 97° |
| 2026-04-30 12:46 | 38.59296 | 16.07180 | 29069 ft | 425 kts | 98° |
| 2026-04-30 12:46 | 38.58305 | 16.14587 | 29066 ft | 425 kts | 98° |
| 2026-04-30 12:47 | 38.57305 | 16.22030 | 29069 ft | 425 kts | 98° |
| 2026-04-30 12:47 | 38.56295 | 16.29462 | 29064 ft | 424 kts | 98° |
| 2026-04-30 12:48 | 38.55282 | 16.36891 | 29077 ft | 424 kts | 98° |
| 2026-04-30 12:48 | 38.54271 | 16.44324 | 29071 ft | 424 kts | 98° |
| 2026-04-30 12:49 | 38.53268 | 16.51698 | 29074 ft | 424 kts | 98° |
| 2026-04-30 12:49 | 38.52246 | 16.59115 | 29073 ft | 424 kts | 98° |
| 2026-04-30 12:50 | 38.51213 | 16.66534 | 29069 ft | 424 kts | 98° |
| 2026-04-30 12:50 | 38.50186 | 16.73950 | 29084 ft | 424 kts | 99° |
| 2026-04-30 12:51 | 38.49153 | 16.81363 | 29085 ft | 424 kts | 99° |
| 2026-04-30 12:51 | 38.48117 | 16.88767 | 29081 ft | 423 kts | 99° |
| 2026-04-30 12:52 | 38.47556 | 16.96209 | 29075 ft | 421 kts | 86° |
| 2026-04-30 12:52 | 38.47782 | 17.03672 | 29068 ft | 421 kts | 86° |
| 2026-04-30 12:53 | 38.47995 | 17.11091 | 29075 ft | 421 kts | 87° |
| 2026-04-30 12:53 | 38.48204 | 17.18557 | 29068 ft | 421 kts | 87° |
| 2026-04-30 12:54 | 38.48407 | 17.26039 | 29070 ft | 421 kts | 87° |
| 2026-04-30 12:54 | 38.48608 | 17.33516 | 29065 ft | 421 kts | 87° |
| 2026-04-30 12:55 | 38.48806 | 17.40983 | 29066 ft | 421 kts | 87° |
| 2026-04-30 12:55 | 38.48995 | 17.48463 | 29069 ft | 422 kts | 87° |
| 2026-04-30 12:56 | 38.49180 | 17.55952 | 29065 ft | 422 kts | 87° |
| 2026-04-30 12:56 | 38.49370 | 17.63446 | 29061 ft | 423 kts | 87° |
| 2026-04-30 12:57 | 38.49542 | 17.70950 | 29068 ft | 423 kts | 87° |
| 2026-04-30 12:57 | 38.49711 | 17.78405 | 29065 ft | 423 kts | 88° |
| 2026-04-30 12:58 | 38.49880 | 17.85919 | 29062 ft | 424 kts | 88° |
| 2026-04-30 12:58 | 38.50051 | 17.93448 | 29062 ft | 424 kts | 88° |
| 2026-04-30 12:59 | 38.50215 | 18.00978 | 29063 ft | 424 kts | 88° |
| 2026-04-30 12:59 | 38.50363 | 18.08512 | 29063 ft | 424 kts | 88° |
| 2026-04-30 13:00 | 38.50508 | 18.16047 | 29064 ft | 424 kts | 88° |
| 2026-04-30 13:00 | 38.50651 | 18.23578 | 29066 ft | 424 kts | 88° |
| 2026-04-30 13:01 | 38.50792 | 18.31118 | 29069 ft | 425 kts | 88° |
| 2026-04-30 13:01 | 38.50934 | 18.38605 | 29069 ft | 424 kts | 88° |
| 2026-04-30 13:02 | 38.51061 | 18.46140 | 29069 ft | 424 kts | 88° |
| 2026-04-30 13:02 | 38.51178 | 18.53684 | 29066 ft | 425 kts | 88° |
| 2026-04-30 13:03 | 38.51299 | 18.61241 | 29066 ft | 425 kts | 88° |
| 2026-04-30 13:03 | 38.51421 | 18.68801 | 29079 ft | 425 kts | 88° |
| 2026-04-30 13:04 | 38.51510 | 18.76364 | 29066 ft | 426 kts | 91° |
| 2026-04-30 13:04 | 38.51078 | 18.80046 | 29069 ft | 425 kts | 104° |
| 2026-04-30 13:04 | 38.50368 | 18.83713 | 29060 ft | 426 kts | 104° |
| 2026-04-30 13:05 | 38.48919 | 18.91059 | 29051 ft | 427 kts | 104° |
| 2026-04-30 13:06 | 38.46728 | 19.02096 | 29055 ft | 428 kts | 104° |
| 2026-04-30 13:06 | 38.45993 | 19.05781 | 28941 ft | 429 kts | 104° |
| 2026-04-30 13:06 | 38.45169 | 19.09431 | 28288 ft | 429 kts | 113° |
| 2026-04-30 13:06 | 38.43812 | 19.12785 | 27077 ft | 422 kts | 121° |
| 2026-04-30 13:07 | 38.42359 | 19.16005 | 26012 ft | 415 kts | 122° |
| 2026-04-30 13:07 | 38.40925 | 19.19143 | 25513 ft | 406 kts | 122° |
| 2026-04-30 13:07 | 38.39527 | 19.22195 | 25045 ft | 402 kts | 122° |
| 2026-04-30 13:07 | 38.38124 | 19.25265 | 24577 ft | 398 kts | 121° |
| 2026-04-30 13:08 | 38.36742 | 19.28303 | 24112 ft | 395 kts | 121° |
| 2026-04-30 13:08 | 38.35373 | 19.31323 | 23651 ft | 392 kts | 121° |
| 2026-04-30 13:08 | 38.34015 | 19.34319 | 23141 ft | 388 kts | 121° |
| 2026-04-30 13:08 | 38.32672 | 19.37280 | 22688 ft | 385 kts | 121° |
| 2026-04-30 13:09 | 38.31338 | 19.40217 | 22239 ft | 382 kts | 121° |
| 2026-04-30 13:09 | 38.30010 | 19.43138 | 21772 ft | 380 kts | 121° |
| 2026-04-30 13:09 | 38.28690 | 19.46037 | 21327 ft | 377 kts | 121° |
| 2026-04-30 13:09 | 38.27374 | 19.48917 | 20864 ft | 376 kts | 121° |
| 2026-04-30 13:10 | 38.26062 | 19.51788 | 20198 ft | 379 kts | 121° |
| 2026-04-30 13:10 | 38.24715 | 19.54733 | 19369 ft | 388 kts | 121° |
| 2026-04-30 13:10 | 38.23358 | 19.57700 | 18795 ft | 388 kts | 121° |
| 2026-04-30 13:10 | 38.22008 | 19.60655 | 18370 ft | 385 kts | 121° |
| 2026-04-30 13:11 | 38.20659 | 19.63609 | 18108 ft | 386 kts | 121° |
| 2026-04-30 13:11 | 38.19312 | 19.66556 | 17839 ft | 385 kts | 121° |
| 2026-04-30 13:11 | 38.17981 | 19.69463 | 17449 ft | 377 kts | 121° |
| 2026-04-30 13:11 | 38.16667 | 19.72329 | 16989 ft | 373 kts | 122° |
| 2026-04-30 13:12 | 38.15366 | 19.75163 | 16525 ft | 369 kts | 122° |
| 2026-04-30 13:12 | 38.14077 | 19.77964 | 16075 ft | 365 kts | 122° |
| 2026-04-30 13:12 | 38.12813 | 19.80703 | 15636 ft | 362 kts | 122° |
| 2026-04-30 13:13 | 38.10285 | 19.86172 | 14746 ft | 356 kts | 122° |
| 2026-04-30 13:13 | 38.09038 | 19.88866 | 14305 ft | 353 kts | 122° |
| 2026-04-30 13:13 | 38.06569 | 19.94212 | 13391 ft | 347 kts | 122° |
| 2026-04-30 13:14 | 38.05351 | 19.96848 | 12940 ft | 344 kts | 122° |
| 2026-04-30 13:14 | 38.04145 | 19.99451 | 12505 ft | 340 kts | 122° |
| 2026-04-30 13:14 | 38.01766 | 20.04580 | 11619 ft | 335 kts | 122° |
| 2026-04-30 13:15 | 38.00591 | 20.07114 | 11189 ft | 332 kts | 122° |
| 2026-04-30 13:15 | 37.98736 | 20.12394 | 10358 ft | 327 kts | 102° |
| 2026-04-30 13:15 | 37.98480 | 20.15215 | 10098 ft | 319 kts | 92° |
| 2026-04-30 13:16 | 37.98363 | 20.17997 | 9923 ft | 314 kts | 93° |
| 2026-04-30 13:16 | 37.98238 | 20.20761 | 9724 ft | 314 kts | 93° |
| 2026-04-30 13:16 | 37.98112 | 20.23509 | 9315 ft | 311 kts | 93° |
| 2026-04-30 13:17 | 37.97865 | 20.28901 | 8467 ft | 306 kts | 93° |
| 2026-04-30 13:17 | 37.97739 | 20.31584 | 8056 ft | 303 kts | 94° |
| 2026-04-30 13:17 | 37.97534 | 20.36000 | 7326 ft | 301 kts | 93° |
| 2026-04-30 13:18 | 37.97373 | 20.39523 | 6769 ft | 297 kts | 93° |
| 2026-04-30 13:18 | 37.97130 | 20.44681 | 5933 ft | 283 kts | 93° |
| 2026-04-30 13:18 | 37.97014 | 20.47087 | 5565 ft | 265 kts | 93° |
| 2026-04-30 13:19 | 37.96905 | 20.49347 | 5213 ft | 250 kts | 93° |
| 2026-04-30 13:19 | 37.96803 | 20.51516 | 4893 ft | 244 kts | 93° |
| 2026-04-30 13:19 | 37.96703 | 20.53652 | 4542 ft | 240 kts | 92° |
| 2026-04-30 13:19 | 37.96624 | 20.55747 | 4204 ft | 235 kts | 88° |
| 2026-04-30 13:20 | 37.97033 | 20.57655 | 4020 ft | 215 kts | 58° |
| 2026-04-30 13:20 | 37.97961 | 20.58968 | 3983 ft | 189 kts | 32° |
| 2026-04-30 13:20 | 37.99118 | 20.59635 | 3911 ft | 179 kts | 11° |
| 2026-04-30 13:20 | 38.00332 | 20.59687 | 3655 ft | 173 kts | 347° |
| 2026-04-30 13:21 | 38.01419 | 20.59192 | 3523 ft | 161 kts | 328° |
| 2026-04-30 13:21 | 38.02315 | 20.58410 | 3389 ft | 152 kts | 323° |
| 2026-04-30 13:21 | 38.03206 | 20.57621 | 2942 ft | 160 kts | 323° |
| 2026-04-30 13:22 | 38.05181 | 20.55871 | 1526 ft | 188 kts | 323° |
| 2026-04-30 13:22 | 38.06244 | 20.54933 | 1169 ft | 178 kts | 324° |
| 2026-04-30 13:22 | 38.08086 | 20.53314 | 806 ft | 152 kts | 322° |
| 2026-04-30 13:23 | 38.08943 | 20.52572 | 645 ft | 147 kts | 323° |
| 2026-04-30 13:23 | 38.10652 | 20.51168 | 239 ft | 145 kts | 331° |
| 2026-04-30 13:24 | 38.12180 | 20.49901 | 55 ft | 112 kts | 321° |
| 2026-04-30 13:24 | 38.12760 | 20.49411 | 48 ft | 28 kts | 326° |
| 2026-04-30 13:25 | 38.12898 | 20.49308 | 45 ft | 2 kts | 217° |
| 2026-04-30 13:25 | 38.12821 | 20.49363 | 46 ft | 8 kts | 147° |
| 2026-04-30 13:26 | 38.12709 | 20.49455 | 46 ft | 13 kts | 146° |
| 2026-04-30 13:26 | 38.12465 | 20.49662 | 53 ft | 21 kts | 148° |
| 2026-04-30 13:27 | 38.12214 | 20.49875 | 52 ft | 26 kts | 146° |
| 2026-04-30 13:28 | 38.11890 | 20.50189 | 57 ft | 11 kts | 95° |
| 2026-04-30 13:28 | 38.11886 | 20.50317 | 60 ft | 0 kts | 121° |
| 2026-04-30 13:28 | 38.11882 | 20.50325 | 54 ft | 6 kts | 120° |
| 2026-04-30 13:29 | 38.11882 | 20.50420 | 59 ft | 0 kts | 62° |